Aviation Digital Data Service (ADDS)

Output produced by METARs form (0822 UTC 20 March 2019)
found at http://www.aviationweather.gov/metar/data/
 
Forecast for: LQSA (SARAJEVO/BUTMIR , CS)
Text: TAF LQSA 200500Z 2006/2106 30006KT 9999 SCT010 BKN030 TX07/2014Z TNM01/2105Z
Forecast period: 0600 UTC 20 March 2019 to 0600 UTC 21 March 2019
Forecast type: FROM: standard forecast or significant change
Winds: from the WNW (300 degrees) at 7 MPH (6 knots; 3.1 m/s)
Visibility: 6 or more miles 10+ km)
Ceiling: 3000 feet AGL
Clouds: scattered clouds at 1000 feet AGL
broken clouds at 3000 feet AGL
Weather: no significant weather forecast for this period
Text: PROB30 2103/2106 4000 BR
Forecast period: 0300 to 0600 UTC 21 March 2019
Forecast type: PROBABLE: 30 percent likelihood of the following during this time
Visibility: 2.49 miles (4.01 km)
Ceiling: unknown
Clouds: missing
Weather: BR  (mist)